createdAt,value
2022-09-12T00:01:54.909Z,16.20
2022-09-12T00:04:21.908Z,16.20
2022-09-12T00:06:48.868Z,16.20
2022-09-12T00:09:16.559Z,16.20
2022-09-12T00:11:46.458Z,16.20
2022-09-12T00:14:16.484Z,16.30
2022-09-12T00:16:44.115Z,16.20
2022-09-12T00:19:12.103Z,16.20
2022-09-12T00:21:40.026Z,16.30
2022-09-12T00:24:08.147Z,16.30
2022-09-12T00:26:35.565Z,16.20
2022-09-12T00:29:02.746Z,16.20
2022-09-12T00:31:29.907Z,16.20
2022-09-12T00:33:58.895Z,16.10
2022-09-12T00:36:26.834Z,16.10
2022-09-12T00:38:56.742Z,16.10
2022-09-12T00:41:28.809Z,16.10
2022-09-12T00:44:16.003Z,16.00
2022-09-12T00:46:53.371Z,15.90
2022-09-12T00:49:41.022Z,15.80
2022-09-12T00:52:30.595Z,15.80
2022-09-12T00:55:12.561Z,15.80
2022-09-12T00:57:50.384Z,15.80
2022-09-12T01:00:20.794Z,15.80
2022-09-12T01:02:54.926Z,15.70
2022-09-12T01:05:23.639Z,15.80
2022-09-12T01:07:52.456Z,15.80
2022-09-12T01:10:20.459Z,15.80
2022-09-12T01:12:48.896Z,15.80
2022-09-12T01:15:15.986Z,15.90
2022-09-12T01:18:04.593Z,15.70
2022-09-12T01:20:50.761Z,15.70
2022-09-12T01:23:36.587Z,15.80
2022-09-12T01:26:20.655Z,15.70
2022-09-12T01:29:12.442Z,15.60
2022-09-12T01:32:15.719Z,15.50
2022-09-12T01:35:09.260Z,15.50
2022-09-12T01:37:39.720Z,15.60
2022-09-12T01:40:49.218Z,15.60
2022-09-12T01:43:28.804Z,15.40
2022-09-12T01:46:29.639Z,15.40
2022-09-12T01:49:05.631Z,15.30
2022-09-12T01:51:38.551Z,15.30
2022-09-12T01:54:24.311Z,15.30
2022-09-12T01:56:56.652Z,15.30
2022-09-12T01:59:59.163Z,15.40
2022-09-12T02:02:38.449Z,15.30
2022-09-12T02:05:27.292Z,15.30
2022-09-12T02:08:10.039Z,15.20
2022-09-12T02:11:11.860Z,15.20
2022-09-12T02:13:55.938Z,15.20
2022-09-12T02:16:29.389Z,15.10
2022-09-12T02:19:07.592Z,15.10
2022-09-12T02:21:40.050Z,15.10
2022-09-12T02:24:10.674Z,15.10
2022-09-12T02:27:10.749Z,15.20
2022-09-12T02:29:37.851Z,15.30
2022-09-12T02:32:30.551Z,15.30
2022-09-12T02:35:18.403Z,15.20
2022-09-12T02:38:02.088Z,15.20
2022-09-12T02:40:30.997Z,15.20
2022-09-12T02:42:58.587Z,15.20
2022-09-12T02:45:25.535Z,15.20
2022-09-12T02:47:59.035Z,15.20
2022-09-12T02:50:27.320Z,15.20
2022-09-12T02:52:55.696Z,15.10
2022-09-12T02:55:24.748Z,15.00
2022-09-12T02:57:51.624Z,15.00
2022-09-12T03:00:18.635Z,15.00
2022-09-12T03:03:12.384Z,15.00
2022-09-12T03:05:56.271Z,15.00
2022-09-12T03:08:49.661Z,14.90
2022-09-12T03:11:40.535Z,14.90
2022-09-12T03:14:16.360Z,15.00
2022-09-12T03:17:02.696Z,15.00
2022-09-12T03:19:50.765Z,14.90
2022-09-12T03:22:30.829Z,14.90
2022-09-12T03:25:03.708Z,14.90
2022-09-12T03:27:36.382Z,15.00
2022-09-12T03:30:08.417Z,15.00
2022-09-12T03:32:43.023Z,14.90
2022-09-12T03:35:11.595Z,14.90
2022-09-12T03:37:39.125Z,14.90
2022-09-12T03:40:08.158Z,14.90
2022-09-12T03:42:35.214Z,14.90
2022-09-12T03:45:02.160Z,14.90
2022-09-12T03:47:29.095Z,14.90
2022-09-12T03:49:56.036Z,14.90
2022-09-12T03:52:23.250Z,14.70
2022-09-12T03:54:50.520Z,14.70
2022-09-12T03:57:17.560Z,14.70
2022-09-12T03:59:44.681Z,14.70
2022-09-12T04:02:13.739Z,14.70
2022-09-12T04:04:43.875Z,14.80
2022-09-12T04:07:11.288Z,14.80
2022-09-12T04:09:38.327Z,14.70
2022-09-12T04:12:05.934Z,14.70
2022-09-12T04:14:32.967Z,14.60
2022-09-12T04:17:00.347Z,14.60
2022-09-12T04:19:27.731Z,14.60
2022-09-12T04:21:54.794Z,14.70
2022-09-12T04:24:21.841Z,14.70
2022-09-12T04:26:48.900Z,14.60
2022-09-12T04:29:15.910Z,14.60
2022-09-12T04:31:43.553Z,14.50
2022-09-12T04:34:10.694Z,14.50
2022-09-12T04:36:38.511Z,14.50
2022-09-12T04:39:06.206Z,14.50
2022-09-12T04:41:35.985Z,14.40
2022-09-12T04:44:10.425Z,14.40
2022-09-12T04:46:40.528Z,14.40
2022-09-12T04:49:07.617Z,14.40
2022-09-12T04:51:37.309Z,14.40
2022-09-12T04:54:07.882Z,14.40
2022-09-12T04:56:40.190Z,14.60
2022-09-12T04:59:08.689Z,14.50
2022-09-12T05:01:36.450Z,14.50
2022-09-12T05:04:03.926Z,14.50
2022-09-12T05:06:35.928Z,14.40
2022-09-12T05:09:06.265Z,14.40
2022-09-12T05:12:02.714Z,14.40
2022-09-12T05:14:24.846Z,14.40
2022-09-12T05:16:51.981Z,14.30
2022-09-12T05:19:19.055Z,14.30
2022-09-12T05:21:46.133Z,14.30
2022-09-12T05:24:13.077Z,14.20
2022-09-12T05:26:40.119Z,14.30
2022-09-12T05:29:08.533Z,14.30
2022-09-12T05:31:35.983Z,14.30
2022-09-12T05:34:05.999Z,14.30
2022-09-12T05:36:33.307Z,14.40
2022-09-12T05:39:04.155Z,14.40
2022-09-12T05:41:33.551Z,14.40
2022-09-12T05:44:02.316Z,14.40
2022-09-12T05:46:32.216Z,14.30
2022-09-12T05:49:04.415Z,14.30
2022-09-12T05:51:34.596Z,14.20
2022-09-12T05:54:03.559Z,14.30
2022-09-12T05:56:37.067Z,14.20
2022-09-12T05:59:07.436Z,14.30
2022-09-12T06:01:35.689Z,14.30
2022-09-12T06:04:05.138Z,14.30
2022-09-12T06:06:35.335Z,14.20
2022-09-12T06:09:04.377Z,14.30
2022-09-12T06:11:35.218Z,14.30
2022-09-12T06:14:02.897Z,14.30
2022-09-12T06:16:32.160Z,14.30
2022-09-12T06:19:07.237Z,14.30
2022-09-12T06:21:37.915Z,14.30
2022-09-12T06:24:05.116Z,14.30
2022-09-12T06:26:31.998Z,14.30
2022-09-12T06:29:01.109Z,14.20
2022-09-12T06:31:33.662Z,14.30
2022-09-12T06:34:02.795Z,14.30
2022-09-12T06:36:33.000Z,14.30
2022-09-12T06:39:05.715Z,14.40
2022-09-12T06:41:32.915Z,14.50
2022-09-12T06:44:01.268Z,14.50
2022-09-12T06:46:28.936Z,14.50
2022-09-12T06:49:00.775Z,14.50
2022-09-12T06:51:29.099Z,14.60
2022-09-12T06:53:57.258Z,14.70
2022-09-12T06:56:26.638Z,14.70
2022-09-12T06:58:56.067Z,14.70
2022-09-12T07:01:25.562Z,14.70
2022-09-12T07:03:55.945Z,14.70
2022-09-12T07:06:24.936Z,14.80
2022-09-12T07:08:52.408Z,14.90
2022-09-12T07:11:22.766Z,15.00
2022-09-12T07:13:52.086Z,15.20
2022-09-12T07:16:20.250Z,15.20
2022-09-12T07:18:58.594Z,15.20
2022-09-12T07:21:26.145Z,15.30
2022-09-12T07:23:55.402Z,15.40
2022-09-12T07:26:22.442Z,15.50
2022-09-12T07:29:03.958Z,15.50
2022-09-12T07:31:40.233Z,15.60
2022-09-12T07:34:07.313Z,15.70
2022-09-12T07:36:35.020Z,15.80
2022-09-12T07:39:04.716Z,15.80
2022-09-12T07:41:34.082Z,15.90
2022-09-12T07:44:03.121Z,16.00
2022-09-12T07:46:31.727Z,16.10
2022-09-12T07:49:00.297Z,16.10
2022-09-12T07:51:29.029Z,16.30
2022-09-12T07:53:56.734Z,16.30
2022-09-12T07:56:29.363Z,16.40
2022-09-12T07:58:57.258Z,16.50
2022-09-12T08:01:24.662Z,16.60
2022-09-12T08:03:58.188Z,16.70
2022-09-12T08:06:26.648Z,16.80
2022-09-12T08:08:57.149Z,16.90
2022-09-12T08:11:25.387Z,17.00
2022-09-12T08:13:55.586Z,17.00
2022-09-12T08:16:25.707Z,17.20
2022-09-12T08:18:52.811Z,17.30
2022-09-12T08:21:28.148Z,17.40
2022-09-12T08:23:57.907Z,17.50
2022-09-12T08:26:25.067Z,17.60
2022-09-12T08:28:53.475Z,17.60
2022-09-12T08:31:22.696Z,17.60
2022-09-12T08:33:49.834Z,17.70
2022-09-12T08:57:02.995Z,18.60
2022-09-12T08:59:48.555Z,18.60
2022-09-12T09:02:40.403Z,18.60
2022-09-12T09:05:40.219Z,18.60
2022-09-12T09:08:22.820Z,18.70
